Time;durP1;ratioP1;P1;durP2;ratioP2;P2;SDS_P1;SDS_P2;PMS_P1;PMS_P2;Temp;Humidity;BMP_temperature;BMP_pressure;BME280_temperature;BME280_humidity;BME280_pressure;Samples;Min_cycle;Max_cycle;Signal;HPM_P1;HPM_P2
2022/11/18 00:00:48;;;;;;;15.10;8.03;;;4.10;99.90;;;;;;5056773;28;20483;-56
2022/11/18 00:03:16;;;;;;;18.47;9.77;;;4.00;99.90;;;;;;5056518;28;20563;-54
2022/11/18 00:05:43;;;;;;;15.17;9.27;;;4.00;99.90;;;;;;5057115;28;20424;-57
2022/11/18 00:08:10;;;;;;;18.03;7.93;;;4.10;99.90;;;;;;5056961;28;20455;-56
2022/11/18 00:10:39;;;;;;;18.73;10.27;;;4.10;99.90;;;;;;5057876;28;20487;-59
2022/11/18 00:16:00;;;;;;;15.50;9.57;;;3.90;99.90;;;;;;5057108;28;20455;-54
2022/11/18 00:18:27;;;;;;;18.50;9.73;;;4.00;99.90;;;;;;5048947;28;20471;-58
2022/11/18 00:20:54;;;;;;;18.20;10.20;;;4.00;99.90;;;;;;5052542;28;20514;-54
2022/11/18 00:23:21;;;;;;;25.13;10.70;;;4.00;99.90;;;;;;5057913;28;20780;-57
2022/11/18 00:25:47;;;;;;;18.10;8.53;;;3.90;99.90;;;;;;5049860;28;20456;-57
2022/11/18 00:28:14;;;;;;;17.20;8.30;;;3.90;99.90;;;;;;5052830;28;20511;-52
2022/11/18 00:30:41;;;;;;;18.20;8.90;;;3.90;99.90;;;;;;5057300;28;20449;-62
2022/11/18 00:33:10;;;;;;;14.97;8.10;;;4.00;99.90;;;;;;5056888;28;20428;-52
2022/11/18 00:35:36;;;;;;;21.10;10.37;;;3.90;99.90;;;;;;5057199;28;20431;-55
2022/11/18 00:38:03;;;;;;;16.53;8.63;;;3.90;99.90;;;;;;5057122;28;20452;-52
2022/11/18 00:40:30;;;;;;;12.57;8.13;;;3.90;99.90;;;;;;5055756;28;20492;-52
2022/11/18 00:42:56;;;;;;;14.57;7.90;;;3.90;99.90;;;;;;5056340;28;20475;-56
2022/11/18 00:45:24;;;;;;;19.23;9.83;;;3.90;99.90;;;;;;5056360;28;20448;-57
2022/11/18 00:47:52;;;;;;;16.60;8.37;;;3.90;99.90;;;;;;5056154;28;20444;-54
2022/11/18 00:50:20;;;;;;;12.67;7.70;;;3.90;99.90;;;;;;5055960;28;20467;-57
2022/11/18 00:52:47;;;;;;;13.30;8.03;;;3.90;99.90;;;;;;5056417;28;20995;-55
2022/11/18 00:55:14;;;;;;;17.37;9.50;;;3.90;99.90;;;;;;5056324;28;20451;-51
2022/11/18 00:57:41;;;;;;;16.27;9.07;;;3.90;99.90;;;;;;5056777;28;20440;-55
2022/11/18 01:00:10;;;;;;;9.67;7.77;;;3.80;99.90;;;;;;5056315;28;20495;-57
2022/11/18 01:02:37;;;;;;;15.97;10.07;;;3.80;99.90;;;;;;5056451;28;20475;-55
2022/11/18 01:05:04;;;;;;;14.97;8.70;;;3.80;99.90;;;;;;5056599;28;20487;-54
2022/11/18 01:07:33;;;;;;;15.77;8.07;;;3.70;99.90;;;;;;5056324;28;20474;-52
2022/11/18 01:10:00;;;;;;;13.53;7.43;;;3.80;99.90;;;;;;5056131;28;20451;-52
2022/11/18 01:15:11;;;;;;;30.40;11.10;;;3.70;99.90;;;;;;5055742;28;20427;-56
2022/11/18 01:17:38;;;;;;;14.70;8.17;;;3.70;99.90;;;;;;5055996;28;20479;-57
2022/11/18 01:20:06;;;;;;;14.60;7.70;;;3.70;99.90;;;;;;5055879;28;20496;-56
2022/11/18 01:22:34;;;;;;;14.33;7.90;;;3.70;99.90;;;;;;5055382;28;20475;-53
2022/11/18 01:25:01;;;;;;;15.87;10.27;;;3.70;99.90;;;;;;5055587;28;20432;-52
2022/11/18 01:27:28;;;;;;;12.80;5.87;;;3.70;99.90;;;;;;5055645;28;20452;-52
2022/11/18 01:29:55;;;;;;;15.60;7.50;;;3.60;99.90;;;;;;5047113;28;20472;-55
2022/11/18 01:32:22;;;;;;;17.10;9.40;;;3.60;99.90;;;;;;5055865;28;20448;-53
2022/11/18 01:34:49;;;;;;;20.60;10.87;;;3.60;99.90;;;;;;5054854;28;20475;-58
2022/11/18 01:37:16;;;;;;;14.80;8.33;;;3.60;99.90;;;;;;5052624;28;21078;-50
2022/11/18 01:39:44;;;;;;;10.27;8.43;;;3.70;99.90;;;;;;5055508;28;20448;-56
2022/11/18 01:42:15;;;;;;;12.10;7.67;;;3.70;99.90;;;;;;5050275;28;20467;-54
2022/11/18 01:45:21;;;;;;;14.40;7.47;;;3.60;99.90;;;;;;5049464;28;20467;-54
2022/11/18 01:47:55;;;;;;;14.27;8.30;;;3.60;99.90;;;;;;5051814;28;20892;-56
2022/11/18 01:50:23;;;;;;;13.67;8.73;;;3.60;99.90;;;;;;5055628;28;20416;-51
2022/11/18 01:52:52;;;;;;;14.60;8.80;;;3.50;99.90;;;;;;5047518;28;20440;-57
2022/11/18 01:55:25;;;;;;;13.43;7.70;;;3.50;99.90;;;;;;5050396;28;20441;-54
2022/11/18 01:58:02;;;;;;;14.20;7.97;;;3.50;99.90;;;;;;5055116;28;20435;-54
2022/11/18 02:00:29;;;;;;;13.30;7.30;;;3.50;99.90;;;;;;5055358;28;20474;-56
2022/11/18 02:02:57;;;;;;;11.70;7.70;;;3.50;99.90;;;;;;5056186;28;20455;-54
2022/11/18 02:05:25;;;;;;;13.10;8.97;;;3.50;99.90;;;;;;5056320;28;20483;-52
2022/11/18 02:07:52;;;;;;;18.47;9.07;;;3.50;99.90;;;;;;5056141;28;20471;-55
2022/11/18 02:10:23;;;;;;;16.67;7.80;;;3.50;99.90;;;;;;5056271;28;20803;-56
2022/11/18 02:12:54;;;;;;;15.00;8.50;;;3.40;99.90;;;;;;5056322;28;20451;-57
2022/11/18 02:15:30;;;;;;;12.80;7.40;;;3.50;99.90;;;;;;5055037;28;20424;-52
2022/11/18 02:18:04;;;;;;;14.30;8.10;;;3.40;99.90;;;;;;5047186;28;20471;-55
2022/11/18 02:20:34;;;;;;;14.13;10.70;;;3.40;99.90;;;;;;5054731;28;20470;-55
2022/11/18 02:23:44;;;;;;;11.77;8.63;;;3.40;99.90;;;;;;5055002;28;20475;-53
2022/11/18 02:26:43;;;;;;;11.23;6.90;;;3.40;99.90;;;;;;5054732;28;20432;-55
2022/11/18 02:29:16;;;;;;;10.30;7.50;;;3.40;99.90;;;;;;5055244;28;20421;-53
2022/11/18 02:31:52;;;;;;;14.43;7.17;;;3.30;99.90;;;;;;5054909;28;20431;-57
2022/11/18 02:34:31;;;;;;;23.73;12.83;;;3.30;99.90;;;;;;5054365;28;20440;-57
2022/11/18 02:37:04;;;;;;;19.47;9.33;;;3.30;99.90;;;;;;5054608;28;20459;-55
2022/11/18 02:39:35;;;;;;;16.77;8.73;;;3.30;99.90;;;;;;5054507;28;20447;-53
2022/11/18 02:42:04;;;;;;;18.37;10.23;;;3.30;99.90;;;;;;5042208;28;20500;-55
2022/11/18 02:44:34;;;;;;;13.27;7.03;;;3.30;99.90;;;;;;5054393;28;20666;-53
2022/11/18 02:47:06;;;;;;;14.60;8.07;;;3.30;99.90;;;;;;5054645;28;20806;-53
2022/11/18 02:49:41;;;;;;;14.60;8.50;;;3.30;99.90;;;;;;5054682;28;20448;-49
2022/11/18 02:52:10;;;;;;;15.20;7.97;;;3.30;99.90;;;;;;5054805;28;20928;-49
2022/11/18 02:54:41;;;;;;;14.57;7.57;;;3.20;99.90;;;;;;5054764;28;20464;-53
2022/11/18 02:57:08;;;;;;;15.97;6.97;;;3.20;99.90;;;;;;5055413;28;20435;-53
2022/11/18 02:59:36;;;;;;;15.53;8.37;;;3.20;99.90;;;;;;5055382;28;20440;-56
2022/11/18 03:02:04;;;;;;;12.80;8.57;;;3.20;99.90;;;;;;5054980;28;20480;-57
2022/11/18 03:04:33;;;;;;;13.10;7.50;;;3.20;99.90;;;;;;5057023;28;20440;-52
2022/11/18 03:07:09;;;;;;;13.40;8.00;;;3.20;99.90;;;;;;5054376;28;20490;-62
2022/11/18 03:09:39;;;;;;;13.37;7.30;;;3.20;99.90;;;;;;5059015;28;20444;-57
2022/11/18 03:12:14;;;;;;;14.40;8.47;;;3.20;99.90;;;;;;5058944;28;20456;-60
2022/11/18 03:14:50;;;;;;;17.23;8.20;;;3.20;99.90;;;;;;5058911;28;20427;-52
2022/11/18 03:17:25;;;;;;;16.23;10.20;;;3.20;99.90;;;;;;5058978;28;20444;-54
2022/11/18 03:20:07;;;;;;;21.27;11.57;;;3.20;99.90;;;;;;5058684;28;20471;-58
2022/11/18 03:22:38;;;;;;;22.63;11.30;;;3.20;99.90;;;;;;5058536;28;20474;-54
2022/11/18 03:25:09;;;;;;;21.77;8.90;;;3.20;99.90;;;;;;5052413;28;20610;-63
2022/11/18 03:27:39;;;;;;;11.90;8.07;;;3.20;99.90;;;;;;5051873;28;20435;-54
2022/11/18 03:30:10;;;;;;;17.27;8.37;;;3.10;99.90;;;;;;5058591;28;20452;-51
2022/11/18 03:32:41;;;;;;;10.20;7.03;;;3.10;99.90;;;;;;5058132;28;20432;-53
2022/11/18 03:35:12;;;;;;;17.47;9.40;;;3.10;99.90;;;;;;5058368;28;20432;-50
2022/11/18 03:37:40;;;;;;;17.17;8.20;;;3.10;99.90;;;;;;5057804;28;20464;-57
2022/11/18 03:40:15;;;;;;;12.50;7.43;;;3.10;99.90;;;;;;5058181;28;20448;-52
2022/11/18 03:42:44;;;;;;;13.20;8.30;;;3.00;99.90;;;;;;5058254;28;20459;-51
2022/11/18 03:45:21;;;;;;;11.13;7.27;;;3.00;99.90;;;;;;5056947;28;20531;-54
2022/11/18 03:47:52;;;;;;;18.87;9.60;;;3.00;99.90;;;;;;5057470;28;20451;-53
2022/11/18 03:50:23;;;;;;;15.30;10.03;;;2.90;99.90;;;;;;5057700;28;20447;-57
2022/11/18 03:52:53;;;;;;;15.93;8.97;;;2.90;99.90;;;;;;5057999;28;20443;-56
2022/11/18 03:55:25;;;;;;;12.07;8.47;;;2.90;99.90;;;;;;5057816;28;20464;-54
2022/11/18 03:57:57;;;;;;;20.27;11.13;;;2.90;99.90;;;;;;5057664;28;20456;-54
2022/11/18 04:00:29;;;;;;;15.23;7.23;;;2.90;99.90;;;;;;5057510;28;20474;-55
2022/11/18 04:03:03;;;;;;;17.47;8.83;;;2.90;99.90;;;;;;5057255;28;20448;-53
2022/11/18 04:05:33;;;;;;;17.53;8.93;;;2.80;99.90;;;;;;5050010;28;20443;-57
2022/11/18 04:08:02;;;;;;;16.90;8.43;;;2.80;99.90;;;;;;5058060;28;20464;-56
2022/11/18 04:10:34;;;;;;;13.70;8.50;;;2.80;99.90;;;;;;5053166;28;20436;-53
2022/11/18 04:13:06;;;;;;;16.30;10.10;;;2.80;99.90;;;;;;5046870;28;20468;-59
2022/11/18 04:15:37;;;;;;;16.80;9.17;;;2.70;99.90;;;;;;5055139;28;20452;-51
2022/11/18 04:18:04;;;;;;;19.30;10.03;;;2.70;99.90;;;;;;5056921;28;20444;-53
2022/11/18 04:20:32;;;;;;;12.60;7.90;;;2.70;99.90;;;;;;5056984;28;20443;-58
2022/11/18 04:22:59;;;;;;;13.80;8.10;;;2.70;99.90;;;;;;5056397;28;20444;-53
2022/11/18 04:25:26;;;;;;;16.53;8.37;;;2.70;99.90;;;;;;5056778;28;20468;-57
2022/11/18 04:27:53;;;;;;;15.33;8.03;;;2.70;99.90;;;;;;5057122;28;20462;-56
2022/11/18 04:30:23;;;;;;;12.77;7.73;;;2.70;99.90;;;;;;5056218;28;20909;-55
2022/11/18 04:32:51;;;;;;;17.27;9.57;;;2.60;99.90;;;;;;5057426;28;20460;-54
2022/11/18 04:35:18;;;;;;;18.20;9.20;;;2.60;99.90;;;;;;5045688;28;20436;-55
2022/11/18 04:37:45;;;;;;;16.20;8.50;;;2.60;99.90;;;;;;5057697;28;20464;-57
2022/11/18 04:40:13;;;;;;;18.03;8.83;;;2.60;99.90;;;;;;5046960;28;20444;-55
2022/11/18 04:42:40;;;;;;;23.80;10.67;;;2.60;99.90;;;;;;5057281;28;20460;-60
2022/11/18 04:45:08;;;;;;;29.73;9.83;;;2.60;99.90;;;;;;5056856;28;20719;-58
2022/11/18 04:47:35;;;;;;;17.47;7.90;;;2.60;99.90;;;;;;5056827;28;20479;-57
2022/11/18 04:50:04;;;;;;;19.67;9.80;;;2.50;99.90;;;;;;5056906;28;20483;-57
2022/11/18 04:52:34;;;;;;;15.43;8.97;;;2.60;99.90;;;;;;5056681;28;20479;-53
2022/11/18 04:55:01;;;;;;;17.73;10.43;;;2.50;99.90;;;;;;5057096;28;20455;-53
2022/11/18 04:57:28;;;;;;;17.20;8.33;;;2.70;99.90;;;;;;5056460;28;20441;-56
2022/11/18 04:59:55;;;;;;;19.40;10.17;;;2.60;99.90;;;;;;5056653;28;20478;-55
2022/11/18 05:02:22;;;;;;;16.73;10.20;;;2.60;99.90;;;;;;5055746;28;20542;-55
2022/11/18 05:04:49;;;;;;;20.30;9.20;;;2.60;99.90;;;;;;5056612;28;20444;-56
2022/11/18 05:07:17;;;;;;;19.33;10.17;;;2.60;99.90;;;;;;5056267;28;20451;-56
2022/11/18 05:09:44;;;;;;;21.63;11.20;;;2.60;99.90;;;;;;5056227;28;20467;-53
2022/11/18 05:14:57;;;;;;;19.83;9.70;;;2.60;99.90;;;;;;5046410;28;20451;-55
2022/11/18 05:17:24;;;;;;;18.83;10.30;;;2.50;99.90;;;;;;5054984;28;20428;-52
2022/11/18 05:19:51;;;;;;;17.57;9.67;;;2.60;99.90;;;;;;5055695;28;20432;-53
2022/11/18 05:22:19;;;;;;;24.77;10.40;;;2.60;99.90;;;;;;5055922;28;20484;-54
2022/11/18 05:24:46;;;;;;;19.00;10.83;;;2.60;99.90;;;;;;5051187;28;20455;-59
2022/11/18 05:27:14;;;;;;;14.60;9.37;;;2.60;99.90;;;;;;5049254;28;20507;-54
2022/11/18 05:29:41;;;;;;;17.10;8.27;;;2.60;99.90;;;;;;5055686;28;20439;-53
2022/11/18 05:32:08;;;;;;;22.20;11.80;;;2.50;99.90;;;;;;5055451;28;20448;-58
2022/11/18 05:34:35;;;;;;;20.73;13.37;;;2.50;99.90;;;;;;5056103;28;20435;-60
2022/11/18 05:37:02;;;;;;;18.83;9.93;;;2.50;99.90;;;;;;5055840;28;20432;-55
2022/11/18 05:39:31;;;;;;;20.87;10.77;;;2.50;99.90;;;;;;5055619;28;20460;-54
2022/11/18 05:44:43;;;;;;;22.90;11.53;;;2.40;99.90;;;;;;5053481;28;20435;-52
2022/11/18 05:47:25;;;;;;;18.83;9.27;;;2.40;99.90;;;;;;5043709;28;20512;-58
2022/11/18 05:49:53;;;;;;;22.27;9.50;;;2.40;99.90;;;;;;5046726;28;20514;-58
2022/11/18 05:52:20;;;;;;;23.83;12.03;;;2.40;99.90;;;;;;5052109;28;20463;-56
2022/11/18 05:54:50;;;;;;;20.93;9.23;;;2.30;99.90;;;;;;5090316;23;20523;-53
2022/11/18 05:57:17;;;;;;;17.90;9.47;;;2.30;99.90;;;;;;5055821;28;20456;-54
2022/11/18 05:59:46;;;;;;;23.90;10.00;;;2.30;99.90;;;;;;5055844;28;20424;-55
2022/11/18 06:02:16;;;;;;;16.33;9.17;;;2.30;99.90;;;;;;5055919;28;20480;-53
2022/11/18 06:04:48;;;;;;;20.57;9.27;;;2.30;99.90;;;;;;5055629;28;21034;-56
2022/11/18 06:07:19;;;;;;;16.73;9.53;;;2.30;99.90;;;;;;5055478;28;20511;-57
2022/11/18 06:09:51;;;;;;;17.57;9.53;;;2.40;99.90;;;;;;5055406;28;20475;-60
2022/11/18 06:12:23;;;;;;;15.23;7.73;;;2.40;99.90;;;;;;5055657;28;20478;-56
2022/11/18 06:14:53;;;;;;;19.97;9.40;;;2.40;99.90;;;;;;5056300;28;20452;-57
2022/11/18 06:17:25;;;;;;;16.70;7.77;;;2.40;99.90;;;;;;5056655;28;20437;-59
2022/11/18 06:19:53;;;;;;;19.63;9.60;;;2.40;99.90;;;;;;5051097;28;20440;-62
2022/11/18 06:22:20;;;;;;;20.67;10.90;;;2.30;99.90;;;;;;5050991;28;20476;-60
2022/11/18 06:24:49;;;;;;;18.60;8.43;;;2.30;99.90;;;;;;5055249;28;20506;-59
2022/11/18 06:27:18;;;;;;;17.93;9.93;;;2.30;99.90;;;;;;5055133;28;20507;-56
2022/11/18 06:29:47;;;;;;;21.83;10.40;;;2.30;99.90;;;;;;5054852;28;20435;-52
2022/11/18 06:32:14;;;;;;;13.67;9.20;;;2.40;99.90;;;;;;5054965;28;20949;-53
2022/11/18 06:34:41;;;;;;;18.40;9.03;;;2.40;99.90;;;;;;5054683;28;20490;-56
2022/11/18 06:37:15;;;;;;;12.73;6.53;;;2.30;99.90;;;;;;5046106;28;20936;-63
2022/11/18 06:39:42;;;;;;;17.83;8.93;;;2.30;99.90;;;;;;5052946;28;20468;-55
2022/11/18 06:42:10;;;;;;;17.27;7.90;;;2.40;99.90;;;;;;5054550;28;20484;-55
2022/11/18 06:44:36;;;;;;;14.47;7.67;;;2.40;99.90;;;;;;5054399;28;20455;-57
2022/11/18 06:47:04;;;;;;;13.30;7.23;;;2.40;99.90;;;;;;5054698;28;20449;-50
2022/11/18 06:49:45;;;;;;;14.10;7.80;;;2.40;99.90;;;;;;5054483;28;20451;-58
2022/11/18 06:52:12;;;;;;;12.97;6.37;;;2.40;99.90;;;;;;5054423;28;20476;-53
2022/11/18 06:54:38;;;;;;;12.07;7.27;;;2.40;99.90;;;;;;5054392;28;20452;-56
2022/11/18 06:57:08;;;;;;;16.63;9.37;;;2.30;99.90;;;;;;5054459;28;20428;-56
2022/11/18 06:59:36;;;;;;;18.43;9.00;;;2.30;99.90;;;;;;5050871;28;20451;-54
2022/11/18 07:02:03;;;;;;;13.40;9.17;;;2.20;99.90;;;;;;5054624;28;20488;-51
2022/11/18 07:04:30;;;;;;;10.17;7.40;;;2.20;99.90;;;;;;5054777;28;20631;-55
2022/11/18 07:07:02;;;;;;;12.43;8.03;;;2.30;99.90;;;;;;5054719;28;20455;-57
2022/11/18 07:09:29;;;;;;;12.90;9.23;;;2.20;99.90;;;;;;5050284;28;20444;-55
2022/11/18 07:11:56;;;;;;;16.30;8.57;;;2.30;99.90;;;;;;5054397;28;20444;-61
2022/11/18 07:14:23;;;;;;;21.13;8.67;;;2.30;99.90;;;;;;5048266;28;20458;-61
2022/11/18 07:16:54;;;;;;;14.80;8.23;;;2.20;99.90;;;;;;5054865;28;20475;-56
2022/11/18 07:19:21;;;;;;;10.63;6.43;;;2.20;99.90;;;;;;5049141;28;20527;-60
2022/11/18 07:22:03;;;;;;;10.23;6.87;;;2.10;99.90;;;;;;5049636;28;20480;-58
2022/11/18 07:24:31;;;;;;;13.27;8.33;;;2.10;99.90;;;;;;5054897;28;20447;-62
2022/11/18 07:26:58;;;;;;;12.00;7.67;;;2.10;99.90;;;;;;5043411;28;20467;-60
2022/11/18 07:29:25;;;;;;;15.47;8.70;;;2.10;99.90;;;;;;5051800;28;20475;-62
2022/11/18 07:31:53;;;;;;;17.37;8.53;;;2.10;99.90;;;;;;5048088;28;20448;-61
2022/11/18 07:34:20;;;;;;;17.70;8.10;;;2.10;99.90;;;;;;5055115;28;20456;-52
2022/11/18 07:36:47;;;;;;;16.70;8.97;;;2.10;99.90;;;;;;5055117;28;20982;-58
2022/11/18 07:39:19;;;;;;;15.63;8.00;;;2.10;99.90;;;;;;5054718;28;20452;-56
2022/11/18 07:41:46;;;;;;;16.87;9.80;;;2.10;99.90;;;;;;5054852;28;20452;-57
2022/11/18 07:44:13;;;;;;;13.30;6.90;;;2.20;99.90;;;;;;5043440;28;20468;-62
2022/11/18 07:46:40;;;;;;;16.07;9.30;;;2.20;99.90;;;;;;5055163;28;20496;-56
2022/11/18 07:49:10;;;;;;;13.47;7.67;;;2.10;99.90;;;;;;5054983;28;20539;-55
2022/11/18 07:51:40;;;;;;;13.90;6.80;;;2.10;99.90;;;;;;5057154;28;20444;-47
2022/11/18 07:54:08;;;;;;;16.43;7.50;;;2.10;99.90;;;;;;5048690;28;20483;-59
2022/11/18 07:56:37;;;;;;;20.60;8.10;;;2.10;99.90;;;;;;5057991;28;20431;-59
2022/11/18 07:59:04;;;;;;;17.50;8.90;;;2.10;99.90;;;;;;5058196;28;20475;-53
2022/11/18 08:01:34;;;;;;;12.03;8.70;;;2.20;99.90;;;;;;5058297;28;20499;-62
2022/11/18 08:04:05;;;;;;;17.60;9.17;;;2.10;99.90;;;;;;5056294;28;20420;-60
2022/11/18 08:06:36;;;;;;;12.63;8.07;;;2.20;99.90;;;;;;5051168;28;20451;-61
2022/11/18 08:09:04;;;;;;;9.23;7.30;;;2.20;99.90;;;;;;5051642;28;20459;-51
2022/11/18 08:11:31;;;;;;;16.20;8.30;;;2.20;99.90;;;;;;5057915;28;20456;-52
2022/11/18 08:13:58;;;;;;;17.17;9.13;;;2.20;99.90;;;;;;5057678;28;20421;-59
2022/11/18 08:16:26;;;;;;;11.97;7.77;;;2.30;99.90;;;;;;5057675;28;20424;-59
2022/11/18 08:18:53;;;;;;;15.67;8.37;;;2.30;99.90;;;;;;5058639;28;20451;-58
2022/11/18 08:21:22;;;;;;;13.90;7.27;;;2.30;99.90;;;;;;5056945;28;20790;-61
2022/11/18 08:24:02;;;;;;;12.50;7.93;;;2.30;99.90;;;;;;5050105;28;20507;-54
2022/11/18 08:26:29;;;;;;;14.83;9.10;;;2.30;99.90;;;;;;5058158;28;20447;-55
2022/11/18 08:28:58;;;;;;;12.47;7.17;;;2.30;99.90;;;;;;5057350;28;20463;-57
2022/11/18 08:31:29;;;;;;;15.60;8.63;;;2.40;99.90;;;;;;5057852;28;20508;-56
2022/11/18 08:33:57;;;;;;;14.90;7.90;;;2.40;99.90;;;;;;5058154;28;20451;-57
2022/11/18 08:36:28;;;;;;;16.27;9.63;;;2.40;99.90;;;;;;5057727;28;20519;-57
2022/11/18 08:38:56;;;;;;;14.30;8.20;;;2.50;99.90;;;;;;5057613;28;20504;-55
2022/11/18 08:41:31;;;;;;;16.97;7.23;;;2.40;99.90;;;;;;5057615;28;20511;-51
2022/11/18 08:44:00;;;;;;;13.60;7.33;;;2.50;99.90;;;;;;5058043;28;20463;-59
2022/11/18 08:46:28;;;;;;;15.93;8.50;;;2.50;99.90;;;;;;5052642;28;20441;-61
2022/11/18 08:48:54;;;;;;;11.97;7.00;;;2.40;99.90;;;;;;5052226;28;20448;-56
2022/11/18 08:51:24;;;;;;;15.40;8.70;;;2.40;99.90;;;;;;5058421;28;20444;-58
2022/11/18 08:53:51;;;;;;;11.60;6.77;;;2.50;99.90;;;;;;5049894;28;21031;-59
2022/11/18 08:56:23;;;;;;;13.00;7.20;;;2.50;99.90;;;;;;5057283;28;20455;-60
2022/11/18 08:58:54;;;;;;;11.77;6.23;;;2.40;99.90;;;;;;5057802;28;20423;-52
2022/11/18 09:01:21;;;;;;;16.50;9.10;;;2.50;99.90;;;;;;5056519;28;20483;-59
2022/11/18 09:03:48;;;;;;;12.90;7.60;;;2.50;99.90;;;;;;5057231;28;20488;-58
2022/11/18 09:06:17;;;;;;;14.10;8.80;;;2.60;99.90;;;;;;5056869;28;20520;-58
2022/11/18 09:08:44;;;;;;;14.97;8.40;;;2.60;99.90;;;;;;5056465;28;20458;-60
2022/11/18 09:11:16;;;;;;;14.50;7.90;;;2.60;99.90;;;;;;5056614;28;20837;-51
2022/11/18 09:13:45;;;;;;;14.90;6.40;;;2.60;99.90;;;;;;5056807;28;20716;-60
2022/11/18 09:16:24;;;;;;;;;;;;;;;;;;;;;
2022/11/18 09:18:51;;;;;;;12.73;8.00;;;2.50;99.90;;;;;;5056219;28;20495;-60
2022/11/18 09:21:18;;;;;;;11.93;6.83;;;2.40;99.90;;;;;;5055725;28;20436;-61
2022/11/18 09:23:46;;;;;;;15.83;6.80;;;2.40;99.90;;;;;;5056313;28;20480;-56
2022/11/18 09:26:14;;;;;;;17.33;8.20;;;2.40;99.90;;;;;;5056330;28;20464;-54
2022/11/18 09:28:42;;;;;;;15.80;7.37;;;2.30;99.90;;;;;;5056326;28;20424;-54
2022/11/18 09:31:10;;;;;;;12.43;6.80;;;2.20;99.90;;;;;;5055911;28;20469;-59
2022/11/18 09:33:41;;;;;;;15.13;6.80;;;2.10;99.90;;;;;;5056197;28;20459;-62
2022/11/18 09:36:13;;;;;;;7.90;5.10;;;2.10;99.90;;;;;;5056574;28;20475;-56
2022/11/18 09:38:40;;;;;;;16.47;7.87;;;2.10;99.90;;;;;;5055849;28;20439;-61
2022/11/18 09:41:22;;;;;;;13.50;7.43;;;2.10;99.90;;;;;;5055657;28;20464;-58
2022/11/18 09:44:00;;;;;;;9.90;5.73;;;2.10;99.90;;;;;;5055502;28;20545;-60
2022/11/18 09:46:39;;;;;;;10.10;7.13;;;2.20;99.90;;;;;;5046544;28;20475;-53
2022/11/18 09:49:14;;;;;;;5.67;4.90;;;2.20;99.90;;;;;;5054908;28;20503;-61
2022/11/18 09:51:45;;;;;;;10.50;5.37;;;2.10;99.90;;;;;;5055490;28;20439;-54
2022/11/18 09:54:19;;;;;;;7.77;6.10;;;2.10;99.90;;;;;;5054744;28;20464;-62
2022/11/18 09:56:48;;;;;;;8.00;5.70;;;2.10;99.90;;;;;;5055791;28;20434;-61
2022/11/18 09:59:21;;;;;;;10.23;5.00;;;2.10;99.90;;;;;;5055323;28;20472;-60
2022/11/18 10:01:56;;;;;;;7.60;6.10;;;2.10;99.90;;;;;;5055751;28;20449;-60
2022/11/18 10:04:28;;;;;;;6.93;5.67;;;2.20;99.90;;;;;;5055452;28;20540;-53
2022/11/18 10:06:59;;;;;;;12.67;7.13;;;2.20;99.90;;;;;;5055728;28;20482;-59
2022/11/18 10:09:32;;;;;;;16.97;6.50;;;2.20;99.90;;;;;;5054858;28;20424;-63
2022/11/18 10:12:19;;;;;;;12.27;7.03;;;2.30;99.90;;;;;;5046322;28;20462;-53
2022/11/18 10:15:15;;;;;;;9.07;4.30;;;2.30;99.90;;;;;;5054854;28;20420;-53
2022/11/18 10:17:51;;;;;;;7.97;4.40;;;2.20;99.90;;;;;;5055897;28;20463;-57
2022/11/18 10:20:30;;;;;;;5.47;4.37;;;2.20;99.90;;;;;;5055328;28;20456;-55
2022/11/18 10:23:03;;;;;;;10.43;5.03;;;2.20;99.90;;;;;;5054967;28;20495;-60
2022/11/18 10:25:30;;;;;;;8.50;5.10;;;2.20;99.90;;;;;;5055958;28;20456;-54
2022/11/18 10:28:01;;;;;;;9.93;5.17;;;2.20;99.90;;;;;;5049527;28;20472;-57
2022/11/18 10:30:28;;;;;;;3.93;3.30;;;2.20;99.90;;;;;;5052965;28;20409;-55
2022/11/18 10:33:00;;;;;;;7.50;3.30;;;2.20;99.90;;;;;;5056646;28;20420;-56
2022/11/18 10:35:32;;;;;;;8.73;5.40;;;2.20;99.90;;;;;;5055511;28;20436;-55
2022/11/18 10:38:17;;;;;;;5.70;4.30;;;2.10;99.90;;;;;;5055597;28;20440;-55
2022/11/18 10:40:47;;;;;;;7.00;5.30;;;2.10;99.90;;;;;;5055252;28;20455;-57
2022/11/18 10:43:47;;;;;;;6.67;3.23;;;2.10;99.90;;;;;;5050974;28;20491;-53
2022/11/18 10:46:18;;;;;;;7.27;4.10;;;2.10;99.90;;;;;;5055930;28;20485;-51
2022/11/18 10:48:45;;;;;;;8.33;5.47;;;2.10;99.90;;;;;;5055462;28;20443;-57
2022/11/18 10:51:23;;;;;;;6.60;4.60;;;2.10;99.90;;;;;;5055625;28;20429;-58
2022/11/18 10:53:51;;;;;;;7.30;4.27;;;2.00;99.90;;;;;;5055385;28;20450;-60
2022/11/18 10:56:18;;;;;;;5.00;3.70;;;2.10;99.90;;;;;;5055152;28;20464;-52
2022/11/18 10:58:49;;;;;;;7.70;3.80;;;2.20;99.90;;;;;;5055389;28;20479;-55
2022/11/18 11:01:22;;;;;;;5.23;3.53;;;2.20;99.90;;;;;;5056169;28;20463;-54
2022/11/18 11:04:03;;;;;;;11.50;4.07;;;2.20;99.90;;;;;;5054927;28;20468;-61
2022/11/18 11:06:37;;;;;;;4.77;4.03;;;2.20;99.90;;;;;;5054885;28;20471;-55
2022/11/18 11:09:07;;;;;;;3.80;3.43;;;2.30;99.90;;;;;;5055713;28;20437;-55
2022/11/18 11:11:36;;;;;;;5.50;4.37;;;2.20;99.90;;;;;;5055055;28;20502;-56
2022/11/18 11:14:26;;;;;;;9.27;4.53;;;2.30;99.90;;;;;;5043581;28;20813;-55
2022/11/18 11:17:12;;;;;;;6.27;4.33;;;2.20;99.90;;;;;;5054919;28;20881;-55
2022/11/18 11:19:47;;;;;;;17.40;5.40;;;2.20;99.90;;;;;;5043117;28;20464;-57
2022/11/18 11:22:16;;;;;;;9.00;5.40;;;2.20;99.90;;;;;;5054891;28;20447;-56
2022/11/18 11:24:44;;;;;;;10.20;4.90;;;2.30;99.90;;;;;;5055551;28;20564;-58
2022/11/18 11:27:23;;;;;;;5.90;3.67;;;2.30;99.90;;;;;;5058730;28;20459;-57
2022/11/18 11:30:04;;;;;;;7.07;4.30;;;2.30;99.90;;;;;;5059035;28;20432;-58
2022/11/18 11:32:51;;;;;;;4.93;3.83;;;2.30;99.90;;;;;;5058559;28;20479;-58
2022/11/18 11:35:22;;;;;;;6.13;3.93;;;2.30;99.90;;;;;;5059372;28;20736;-59
2022/11/18 11:37:57;;;;;;;7.93;5.00;;;2.30;99.90;;;;;;5058864;28;20474;-56
2022/11/18 11:40:34;;;;;;;8.43;5.10;;;2.30;99.90;;;;;;5058689;28;20527;-59
2022/11/18 11:43:22;;;;;;;8.67;3.97;;;2.40;99.90;;;;;;5058215;28;20495;-57
2022/11/18 11:46:09;;;;;;;14.30;5.60;;;2.40;99.90;;;;;;5058007;28;20432;-60
2022/11/18 11:48:49;;;;;;;7.23;4.77;;;2.50;99.90;;;;;;5057955;28;20460;-54
2022/11/18 11:51:23;;;;;;;7.43;4.73;;;2.50;99.90;;;;;;5057940;28;20566;-56
2022/11/18 11:54:08;;;;;;;7.00;4.90;;;2.50;99.90;;;;;;5058182;28;20438;-59
2022/11/18 11:56:40;;;;;;;3.93;2.70;;;2.50;99.90;;;;;;5057907;28;20459;-57
2022/11/18 11:59:17;;;;;;;7.93;3.20;;;2.50;99.90;;;;;;5058439;28;20448;-55
2022/11/18 12:01:58;;;;;;;7.90;3.43;;;2.40;99.90;;;;;;5058372;28;20427;-56
2022/11/18 12:04:42;;;;;;;9.67;6.60;;;2.50;99.90;;;;;;5057482;28;20471;-59
2022/11/18 12:07:18;;;;;;;15.13;4.30;;;2.60;99.90;;;;;;5057794;28;20443;-58
2022/11/18 12:10:08;;;;;;;13.13;5.50;;;2.60;99.90;;;;;;5058148;28;20472;-57
2022/11/18 12:12:43;;;;;;;9.43;5.60;;;2.70;99.90;;;;;;5057429;28;20440;-56
2022/11/18 12:15:25;;;;;;;8.67;4.63;;;2.60;99.90;;;;;;5057094;28;20506;-55
2022/11/18 12:18:03;;;;;;;6.47;3.70;;;2.70;99.90;;;;;;5057098;28;20451;-61
2022/11/18 12:20:41;;;;;;;6.33;4.40;;;2.70;99.90;;;;;;5057674;28;20452;-58
2022/11/18 12:23:13;;;;;;;18.43;5.60;;;2.70;99.90;;;;;;5057113;28;20511;-57
2022/11/18 12:25:55;;;;;;;6.10;4.57;;;2.70;99.90;;;;;;5057135;28;20478;-61
2022/11/18 12:28:25;;;;;;;5.77;4.07;;;2.70;99.90;;;;;;5045622;28;20459;-55
2022/11/18 12:31:32;;;;;;;7.40;3.87;;;2.70;99.90;;;;;;5048196;28;20452;-63
2022/11/18 12:34:04;;;;;;;7.00;3.80;;;2.80;99.90;;;;;;5057408;28;20468;-61
2022/11/18 12:36:32;;;;;;;7.37;3.60;;;2.90;99.90;;;;;;5056995;28;20436;-53
2022/11/18 12:39:24;;;;;;;6.00;3.67;;;2.90;99.90;;;;;;5057117;28;20468;-53
2022/11/18 12:44:42;;;;;;;6.90;3.53;;;2.80;99.90;;;;;;5057205;28;20535;-59
2022/11/18 12:47:09;;;;;;;4.07;3.47;;;2.90;99.90;;;;;;5057237;28;20436;-56
2022/11/18 12:50:11;;;;;;;6.13;4.00;;;2.80;99.90;;;;;;5056337;28;20730;-55
2022/11/18 12:53:02;;;;;;;4.60;3.27;;;2.80;99.90;;;;;;5057293;28;20488;-57
2022/11/18 12:55:33;;;;;;;6.07;3.80;;;2.70;99.90;;;;;;5056817;28;20417;-57
2022/11/18 12:58:01;;;;;;;4.97;3.33;;;2.70;99.90;;;;;;5056697;28;20543;-55
2022/11/18 13:00:50;;;;;;;6.33;2.70;;;2.60;99.90;;;;;;5056615;28;20424;-53
2022/11/18 13:03:23;;;;;;;11.30;3.87;;;2.50;99.90;;;;;;5054621;28;20468;-61
2022/11/18 13:05:57;;;;;;;6.60;4.33;;;2.40;99.90;;;;;;5048105;28;20432;-58
2022/11/18 13:08:28;;;;;;;8.47;5.27;;;2.30;99.90;;;;;;5056401;28;20421;-56
2022/11/18 13:13:42;;;;;;;5.53;3.27;;;2.30;99.90;;;;;;5055719;28;20444;-56
2022/11/18 13:19:03;;;;;;;5.87;3.50;;;2.20;99.90;;;;;;5056322;28;20451;-56
2022/11/18 13:24:20;;;;;;;4.60;3.13;;;2.20;99.90;;;;;;5055610;28;20475;-54
2022/11/18 13:26:49;;;;;;;6.50;3.80;;;2.20;99.90;;;;;;5055935;28;20444;-57
2022/11/18 13:29:42;;;;;;;7.53;3.70;;;2.20;99.90;;;;;;5052187;28;20832;-61
2022/11/18 13:32:31;;;;;;;5.03;3.40;;;2.30;99.90;;;;;;5051118;28;20463;-51